sensor_id;sensor_type;location;lat;lon;timestamp;P1;durP1;ratioP1;P2;durP2;ratioP2
14619;SDS011;32125;48.518;9.050;2023-07-29T00:01:35;3.90;;;3.60;;
14619;SDS011;32125;48.518;9.050;2023-07-29T00:04:03;4.60;;;3.80;;
14619;SDS011;32125;48.518;9.050;2023-07-29T00:06:29;7.77;;;4.40;;
14619;SDS011;32125;48.518;9.050;2023-07-29T00:08:58;10.63;;;4.50;;
14619;SDS011;32125;48.518;9.050;2023-07-29T00:11:24;11.80;;;5.67;;
14619;SDS011;32125;48.518;9.050;2023-07-29T00:13:50;8.73;;;4.57;;
14619;SDS011;32125;48.518;9.050;2023-07-29T00:16:17;7.43;;;4.63;;
14619;SDS011;32125;48.518;9.050;2023-07-29T00:18:46;45.67;;;6.80;;
14619;SDS011;32125;48.518;9.050;2023-07-29T00:21:15;8.57;;;5.03;;
14619;SDS011;32125;48.518;9.050;2023-07-29T00:23:43;10.13;;;5.17;;
14619;SDS011;32125;48.518;9.050;2023-07-29T00:26:09;6.83;;;4.60;;
14619;SDS011;32125;48.518;9.050;2023-07-29T00:28:35;8.50;;;4.57;;
14619;SDS011;32125;48.518;9.050;2023-07-29T00:31:01;6.77;;;4.50;;
14619;SDS011;32125;48.518;9.050;2023-07-29T00:33:27;9.10;;;5.00;;
14619;SDS011;32125;48.518;9.050;2023-07-29T00:35:53;5.67;;;5.07;;
14619;SDS011;32125;48.518;9.050;2023-07-29T00:38:19;7.23;;;5.30;;
14619;SDS011;32125;48.518;9.050;2023-07-29T00:40:45;8.93;;;6.00;;
14619;SDS011;32125;48.518;9.050;2023-07-29T00:43:10;5.77;;;5.00;;
14619;SDS011;32125;48.518;9.050;2023-07-29T00:45:36;6.10;;;4.57;;
14619;SDS011;32125;48.518;9.050;2023-07-29T00:48:03;6.87;;;4.70;;
14619;SDS011;32125;48.518;9.050;2023-07-29T00:50:34;11.07;;;4.70;;
14619;SDS011;32125;48.518;9.050;2023-07-29T00:53:00;7.43;;;5.50;;
14619;SDS011;32125;48.518;9.050;2023-07-29T00:55:26;7.77;;;4.63;;
14619;SDS011;32125;48.518;9.050;2023-07-29T00:57:53;8.10;;;5.97;;
14619;SDS011;32125;48.518;9.050;2023-07-29T01:00:20;7.23;;;6.53;;
14619;SDS011;32125;48.518;9.050;2023-07-29T01:02:48;6.93;;;6.27;;
14619;SDS011;32125;48.518;9.050;2023-07-29T01:05:16;6.77;;;5.93;;
14619;SDS011;32125;48.518;9.050;2023-07-29T01:07:51;5.90;;;5.13;;
14619;SDS011;32125;48.518;9.050;2023-07-29T01:15:32;6.13;;;4.63;;
14619;SDS011;32125;48.518;9.050;2023-07-29T01:18:08;5.40;;;4.90;;
14619;SDS011;32125;48.518;9.050;2023-07-29T01:20:42;4.90;;;4.50;;
14619;SDS011;32125;48.518;9.050;2023-07-29T01:23:09;8.37;;;5.43;;
14619;SDS011;32125;48.518;9.050;2023-07-29T01:25:35;6.13;;;4.83;;
14619;SDS011;32125;48.518;9.050;2023-07-29T01:28:01;5.83;;;4.90;;
14619;SDS011;32125;48.518;9.050;2023-07-29T01:30:29;8.93;;;5.50;;
14619;SDS011;32125;48.518;9.050;2023-07-29T01:33:05;6.80;;;4.70;;
14619;SDS011;32125;48.518;9.050;2023-07-29T01:38:45;6.20;;;4.30;;
14619;SDS011;32125;48.518;9.050;2023-07-29T01:41:13;9.63;;;5.50;;
14619;SDS011;32125;48.518;9.050;2023-07-29T01:43:39;8.83;;;4.97;;
14619;SDS011;32125;48.518;9.050;2023-07-29T01:46:12;7.03;;;5.10;;
14619;SDS011;32125;48.518;9.050;2023-07-29T01:48:40;8.97;;;6.00;;
14619;SDS011;32125;48.518;9.050;2023-07-29T01:51:06;5.70;;;5.10;;
14619;SDS011;32125;48.518;9.050;2023-07-29T01:53:32;16.97;;;5.43;;
14619;SDS011;32125;48.518;9.050;2023-07-29T01:56:01;8.50;;;4.97;;
14619;SDS011;32125;48.518;9.050;2023-07-29T01:58:30;5.10;;;4.60;;
14619;SDS011;32125;48.518;9.050;2023-07-29T02:00:56;9.00;;;5.70;;
14619;SDS011;32125;48.518;9.050;2023-07-29T02:03:21;8.67;;;4.70;;
14619;SDS011;32125;48.518;9.050;2023-07-29T02:05:47;11.47;;;4.80;;
14619;SDS011;32125;48.518;9.050;2023-07-29T02:08:15;9.17;;;4.63;;
14619;SDS011;32125;48.518;9.050;2023-07-29T02:10:41;8.27;;;4.60;;
14619;SDS011;32125;48.518;9.050;2023-07-29T02:13:10;11.63;;;4.60;;
14619;SDS011;32125;48.518;9.050;2023-07-29T02:15:36;13.63;;;4.83;;
14619;SDS011;32125;48.518;9.050;2023-07-29T02:18:04;14.03;;;4.53;;
14619;SDS011;32125;48.518;9.050;2023-07-29T02:20:31;9.47;;;4.57;;
14619;SDS011;32125;48.518;9.050;2023-07-29T02:22:57;11.60;;;4.43;;
14619;SDS011;32125;48.518;9.050;2023-07-29T02:25:22;11.43;;;4.80;;
14619;SDS011;32125;48.518;9.050;2023-07-29T02:27:48;12.43;;;4.73;;
14619;SDS011;32125;48.518;9.050;2023-07-29T02:30:14;5.13;;;4.63;;
14619;SDS011;32125;48.518;9.050;2023-07-29T02:32:40;5.73;;;4.63;;
14619;SDS011;32125;48.518;9.050;2023-07-29T02:35:06;30.30;;;5.57;;
14619;SDS011;32125;48.518;9.050;2023-07-29T02:37:34;20.47;;;5.10;;
14619;SDS011;32125;48.518;9.050;2023-07-29T02:40:03;13.87;;;5.27;;
14619;SDS011;32125;48.518;9.050;2023-07-29T02:42:29;14.10;;;5.47;;
14619;SDS011;32125;48.518;9.050;2023-07-29T02:44:54;13.87;;;5.27;;
14619;SDS011;32125;48.518;9.050;2023-07-29T02:47:23;32.43;;;5.30;;
14619;SDS011;32125;48.518;9.050;2023-07-29T02:49:51;7.77;;;4.60;;
14619;SDS011;32125;48.518;9.050;2023-07-29T02:52:17;8.93;;;4.60;;
14619;SDS011;32125;48.518;9.050;2023-07-29T02:54:42;47.37;;;6.57;;
14619;SDS011;32125;48.518;9.050;2023-07-29T02:57:08;5.43;;;4.93;;
14619;SDS011;32125;48.518;9.050;2023-07-29T02:59:34;6.93;;;5.00;;
14619;SDS011;32125;48.518;9.050;2023-07-29T03:02:00;42.60;;;7.17;;
14619;SDS011;32125;48.518;9.050;2023-07-29T03:04:27;29.50;;;6.50;;
14619;SDS011;32125;48.518;9.050;2023-07-29T03:06:53;40.80;;;7.23;;
14619;SDS011;32125;48.518;9.050;2023-07-29T03:09:18;12.67;;;5.80;;
14619;SDS011;32125;48.518;9.050;2023-07-29T03:11:44;6.03;;;5.43;;
14619;SDS011;32125;48.518;9.050;2023-07-29T03:14:13;12.60;;;5.67;;
14619;SDS011;32125;48.518;9.050;2023-07-29T03:16:39;5.60;;;5.00;;
14619;SDS011;32125;48.518;9.050;2023-07-29T03:19:05;6.90;;;5.30;;
14619;SDS011;32125;48.518;9.050;2023-07-29T03:21:31;8.73;;;5.43;;
14619;SDS011;32125;48.518;9.050;2023-07-29T03:24:00;5.93;;;4.80;;
14619;SDS011;32125;48.518;9.050;2023-07-29T03:26:26;11.57;;;5.37;;
14619;SDS011;32125;48.518;9.050;2023-07-29T03:28:54;6.50;;;4.77;;
14619;SDS011;32125;48.518;9.050;2023-07-29T03:31:20;5.50;;;5.00;;
14619;SDS011;32125;48.518;9.050;2023-07-29T03:33:45;5.80;;;5.30;;
14619;SDS011;32125;48.518;9.050;2023-07-29T03:36:11;6.43;;;5.10;;
14619;SDS011;32125;48.518;9.050;2023-07-29T03:38:37;7.13;;;4.47;;
14619;SDS011;32125;48.518;9.050;2023-07-29T03:41:06;5.50;;;5.00;;
14619;SDS011;32125;48.518;9.050;2023-07-29T03:43:36;11.63;;;5.67;;
14619;SDS011;32125;48.518;9.050;2023-07-29T03:46:01;12.53;;;5.30;;
14619;SDS011;32125;48.518;9.050;2023-07-29T03:48:27;5.20;;;4.80;;
14619;SDS011;32125;48.518;9.050;2023-07-29T03:50:52;9.80;;;4.50;;
14619;SDS011;32125;48.518;9.050;2023-07-29T03:53:21;8.43;;;5.03;;
14619;SDS011;32125;48.518;9.050;2023-07-29T03:55:47;4.60;;;4.20;;
14619;SDS011;32125;48.518;9.050;2023-07-29T03:58:15;5.53;;;4.30;;
14619;SDS011;32125;48.518;9.050;2023-07-29T04:00:40;9.10;;;4.70;;
14619;SDS011;32125;48.518;9.050;2023-07-29T04:03:06;4.53;;;4.13;;
14619;SDS011;32125;48.518;9.050;2023-07-29T04:05:32;10.87;;;4.63;;
14619;SDS011;32125;48.518;9.050;2023-07-29T04:07:58;10.57;;;5.00;;
14619;SDS011;32125;48.518;9.050;2023-07-29T04:10:24;5.27;;;4.77;;
14619;SDS011;32125;48.518;9.050;2023-07-29T04:12:50;5.93;;;4.00;;
14619;SDS011;32125;48.518;9.050;2023-07-29T04:15:16;6.20;;;4.63;;
14619;SDS011;32125;48.518;9.050;2023-07-29T04:17:42;4.37;;;4.03;;
14619;SDS011;32125;48.518;9.050;2023-07-29T04:20:10;4.13;;;3.73;;
14619;SDS011;32125;48.518;9.050;2023-07-29T04:22:36;5.70;;;3.70;;
14619;SDS011;32125;48.518;9.050;2023-07-29T04:25:02;4.80;;;3.70;;
14619;SDS011;32125;48.518;9.050;2023-07-29T04:27:29;5.40;;;4.33;;
14619;SDS011;32125;48.518;9.050;2023-07-29T04:29:55;12.37;;;4.60;;
14619;SDS011;32125;48.518;9.050;2023-07-29T04:32:21;6.70;;;5.67;;
14619;SDS011;32125;48.518;9.050;2023-07-29T04:34:46;5.33;;;4.83;;
14619;SDS011;32125;48.518;9.050;2023-07-29T04:37:15;6.27;;;4.90;;
14619;SDS011;32125;48.518;9.050;2023-07-29T04:39:40;7.20;;;5.53;;
14619;SDS011;32125;48.518;9.050;2023-07-29T04:42:09;11.80;;;5.33;;
14619;SDS011;32125;48.518;9.050;2023-07-29T04:44:35;5.23;;;4.80;;
14619;SDS011;32125;48.518;9.050;2023-07-29T04:47:01;5.40;;;4.80;;
14619;SDS011;32125;48.518;9.050;2023-07-29T04:49:26;4.90;;;4.50;;
14619;SDS011;32125;48.518;9.050;2023-07-29T04:51:52;5.00;;;4.50;;
14619;SDS011;32125;48.518;9.050;2023-07-29T04:54:20;4.67;;;4.27;;
14619;SDS011;32125;48.518;9.050;2023-07-29T04:56:46;4.77;;;4.10;;
14619;SDS011;32125;48.518;9.050;2023-07-29T05:02:16;8.73;;;4.60;;
14619;SDS011;32125;48.518;9.050;2023-07-29T05:04:42;4.50;;;3.80;;
14619;SDS011;32125;48.518;9.050;2023-07-29T05:07:08;3.80;;;3.50;;
14619;SDS011;32125;48.518;9.050;2023-07-29T05:09:34;4.67;;;4.13;;
14619;SDS011;32125;48.518;9.050;2023-07-29T05:12:00;3.60;;;3.30;;
14619;SDS011;32125;48.518;9.050;2023-07-29T05:14:26;6.67;;;3.50;;
14619;SDS011;32125;48.518;9.050;2023-07-29T05:16:57;6.30;;;3.37;;
14619;SDS011;32125;48.518;9.050;2023-07-29T05:19:23;3.50;;;3.20;;
14619;SDS011;32125;48.518;9.050;2023-07-29T05:21:49;5.73;;;4.00;;
14619;SDS011;32125;48.518;9.050;2023-07-29T05:24:15;5.83;;;3.13;;
14619;SDS011;32125;48.518;9.050;2023-07-29T05:26:41;6.03;;;3.60;;
14619;SDS011;32125;48.518;9.050;2023-07-29T05:29:09;7.87;;;3.40;;
14619;SDS011;32125;48.518;9.050;2023-07-29T05:31:35;8.00;;;3.40;;
14619;SDS011;32125;48.518;9.050;2023-07-29T05:34:01;4.03;;;3.00;;
14619;SDS011;32125;48.518;9.050;2023-07-29T05:36:27;4.80;;;3.20;;
14619;SDS011;32125;48.518;9.050;2023-07-29T05:38:56;3.77;;;3.43;;
14619;SDS011;32125;48.518;9.050;2023-07-29T05:41:22;3.53;;;3.23;;
14619;SDS011;32125;48.518;9.050;2023-07-29T05:43:48;3.37;;;3.07;;
14619;SDS011;32125;48.518;9.050;2023-07-29T05:46:14;3.40;;;3.03;;
14619;SDS011;32125;48.518;9.050;2023-07-29T05:48:43;3.60;;;3.30;;
14619;SDS011;32125;48.518;9.050;2023-07-29T05:51:08;3.93;;;3.10;;
14619;SDS011;32125;48.518;9.050;2023-07-29T05:53:34;4.53;;;3.50;;
14619;SDS011;32125;48.518;9.050;2023-07-29T05:56:03;4.50;;;4.10;;
14619;SDS011;32125;48.518;9.050;2023-07-29T05:58:29;7.23;;;3.53;;
14619;SDS011;32125;48.518;9.050;2023-07-29T06:00:56;3.33;;;3.03;;
14619;SDS011;32125;48.518;9.050;2023-07-29T06:03:22;6.70;;;2.97;;
14619;SDS011;32125;48.518;9.050;2023-07-29T06:05:48;3.42;;;3.13;;
14619;SDS011;32125;48.518;9.050;2023-07-29T06:08:16;4.05;;;3.00;;
14619;SDS011;32125;48.518;9.050;2023-07-29T06:10:49;3.67;;;2.40;;
14619;SDS011;32125;48.518;9.050;2023-07-29T06:13:15;3.60;;;3.30;;
14619;SDS011;32125;48.518;9.050;2023-07-29T07:32:25;4.95;;;3.00;;
14619;SDS011;32125;48.518;9.050;2023-07-29T07:34:51;3.15;;;2.85;;
14619;SDS011;32125;48.518;9.050;2023-07-29T08:03:13;3.83;;;3.10;;
14619;SDS011;32125;48.518;9.050;2023-07-29T08:18:11;5.47;;;2.90;;
14619;SDS011;32125;48.518;9.050;2023-07-29T08:20:37;4.82;;;2.63;;
14619;SDS011;32125;48.518;9.050;2023-07-29T08:23:03;6.32;;;3.00;;
14619;SDS011;32125;48.518;9.050;2023-07-29T08:25:29;3.40;;;3.10;;
14619;SDS011;32125;48.518;9.050;2023-07-29T08:27:56;3.10;;;2.80;;
14619;SDS011;32125;48.518;9.050;2023-07-29T08:30:24;4.95;;;2.90;;
14619;SDS011;32125;48.518;9.050;2023-07-29T08:32:50;3.95;;;3.15;;
14619;SDS011;32125;48.518;9.050;2023-07-29T08:35:16;4.57;;;2.60;;
14619;SDS011;32125;48.518;9.050;2023-07-29T08:37:42;5.63;;;2.80;;
14619;SDS011;32125;48.518;9.050;2023-07-29T08:40:08;3.40;;;3.00;;
14619;SDS011;32125;48.518;9.050;2023-07-29T08:42:34;4.88;;;2.75;;
14619;SDS011;32125;48.518;9.050;2023-07-29T08:45:07;6.78;;;3.15;;
14619;SDS011;32125;48.518;9.050;2023-07-29T08:47:36;5.28;;;2.90;;
14619;SDS011;32125;48.518;9.050;2023-07-29T08:50:02;2.40;;;2.20;;
14619;SDS011;32125;48.518;9.050;2023-07-29T08:52:31;2.88;;;1.90;;
14619;SDS011;32125;48.518;9.050;2023-07-29T08:54:58;1.70;;;1.60;;
14619;SDS011;32125;48.518;9.050;2023-07-29T08:57:24;1.60;;;1.50;;
14619;SDS011;32125;48.518;9.050;2023-07-29T08:59:50;2.10;;;1.38;;
14619;SDS011;32125;48.518;9.050;2023-07-29T09:02:16;2.00;;;1.65;;
14619;SDS011;32125;48.518;9.050;2023-07-29T09:04:42;2.03;;;1.50;;
14619;SDS011;32125;48.518;9.050;2023-07-29T09:07:08;1.80;;;1.30;;
14619;SDS011;32125;48.518;9.050;2023-07-29T09:09:37;2.00;;;1.40;;
14619;SDS011;32125;48.518;9.050;2023-07-29T09:12:03;1.67;;;1.58;;
14619;SDS011;32125;48.518;9.050;2023-07-29T09:14:32;1.75;;;1.35;;
14619;SDS011;32125;48.518;9.050;2023-07-29T09:16:58;2.92;;;1.50;;
14619;SDS011;32125;48.518;9.050;2023-07-29T09:19:25;2.72;;;1.60;;
14619;SDS011;32125;48.518;9.050;2023-07-29T09:21:53;2.85;;;1.70;;
14619;SDS011;32125;48.518;9.050;2023-07-29T09:24:19;2.65;;;1.52;;
14619;SDS011;32125;48.518;9.050;2023-07-29T09:26:50;1.50;;;1.40;;
14619;SDS011;32125;48.518;9.050;2023-07-29T09:29:16;1.70;;;1.60;;
14619;SDS011;32125;48.518;9.050;2023-07-29T09:31:50;1.92;;;1.70;;
14619;SDS011;32125;48.518;9.050;2023-07-29T09:34:16;2.95;;;1.65;;
14619;SDS011;32125;48.518;9.050;2023-07-29T09:36:42;1.98;;;1.70;;
14619;SDS011;32125;48.518;9.050;2023-07-29T09:39:12;1.90;;;1.70;;
14619;SDS011;32125;48.518;9.050;2023-07-29T09:41:38;2.53;;;1.70;;
14619;SDS011;32125;48.518;9.050;2023-07-29T09:44:04;1.75;;;1.65;;
14619;SDS011;32125;48.518;9.050;2023-07-29T09:46:37;2.97;;;1.88;;
14619;SDS011;32125;48.518;9.050;2023-07-29T09:49:06;3.80;;;1.88;;
14619;SDS011;32125;48.518;9.050;2023-07-29T09:51:39;2.05;;;1.90;;
14619;SDS011;32125;48.518;9.050;2023-07-29T09:54:05;3.05;;;1.80;;
14619;SDS011;32125;48.518;9.050;2023-07-29T09:56:31;1.55;;;1.45;;
14619;SDS011;32125;48.518;9.050;2023-07-29T09:58:57;1.73;;;1.63;;
14619;SDS011;32125;48.518;9.050;2023-07-29T10:01:25;2.60;;;1.70;;
14619;SDS011;32125;48.518;9.050;2023-07-29T10:03:51;2.00;;;1.48;;
14619;SDS011;32125;48.518;9.050;2023-07-29T10:06:17;2.45;;;1.75;;
14619;SDS011;32125;48.518;9.050;2023-07-29T10:08:44;2.25;;;1.42;;
14619;SDS011;32125;48.518;9.050;2023-07-29T10:11:10;3.80;;;1.60;;
14619;SDS011;32125;48.518;9.050;2023-07-29T10:13:39;1.60;;;1.50;;
14619;SDS011;32125;48.518;9.050;2023-07-29T10:16:05;1.45;;;1.40;;
14619;SDS011;32125;48.518;9.050;2023-07-29T10:18:32;1.75;;;1.52;;
14619;SDS011;32125;48.518;9.050;2023-07-29T10:20:59;1.80;;;1.70;;
14619;SDS011;32125;48.518;9.050;2023-07-29T10:23:32;1.65;;;1.40;;
14619;SDS011;32125;48.518;9.050;2023-07-29T10:26:10;2.30;;;1.77;;
14619;SDS011;32125;48.518;9.050;2023-07-29T10:28:39;18.55;;;9.07;;
14619;SDS011;32125;48.518;9.050;2023-07-29T10:31:10;12.20;;;5.97;;
14619;SDS011;32125;48.518;9.050;2023-07-29T10:33:37;5.20;;;2.72;;
14619;SDS011;32125;48.518;9.050;2023-07-29T10:36:04;1.52;;;1.42;;
14619;SDS011;32125;48.518;9.050;2023-07-29T10:38:30;1.60;;;1.50;;
14619;SDS011;32125;48.518;9.050;2023-07-29T10:40:57;5.68;;;2.67;;
14619;SDS011;32125;48.518;9.050;2023-07-29T10:43:37;2.80;;;1.50;;
14619;SDS011;32125;48.518;9.050;2023-07-29T10:48:42;3.58;;;1.50;;
14619;SDS011;32125;48.518;9.050;2023-07-29T10:51:29;2.58;;;1.70;;
14619;SDS011;32125;48.518;9.050;2023-07-29T10:54:09;8.85;;;4.90;;
14619;SDS011;32125;48.518;9.050;2023-07-29T10:56:42;2.95;;;1.67;;
14619;SDS011;32125;48.518;9.050;2023-07-29T11:01:38;2.28;;;1.48;;
14619;SDS011;32125;48.518;9.050;2023-07-29T11:12:41;2.42;;;1.70;;
14619;SDS011;32125;48.518;9.050;2023-07-29T11:17:46;1.58;;;1.48;;
14619;SDS011;32125;48.518;9.050;2023-07-29T11:20:13;3.88;;;1.70;;
14619;SDS011;32125;48.518;9.050;2023-07-29T11:22:39;2.95;;;1.70;;
14619;SDS011;32125;48.518;9.050;2023-07-29T11:25:06;4.63;;;1.70;;
14619;SDS011;32125;48.518;9.050;2023-07-29T11:27:36;1.80;;;1.70;;
14619;SDS011;32125;48.518;9.050;2023-07-29T11:30:10;1.60;;;1.50;;
14619;SDS011;32125;48.518;9.050;2023-07-29T11:32:38;2.75;;;2.22;;
14619;SDS011;32125;48.518;9.050;2023-07-29T11:35:08;1.70;;;1.60;;
14619;SDS011;32125;48.518;9.050;2023-07-29T11:37:44;2.25;;;1.63;;
14619;SDS011;32125;48.518;9.050;2023-07-29T11:40:19;1.80;;;1.70;;
14619;SDS011;32125;48.518;9.050;2023-07-29T11:42:49;1.70;;;1.60;;
14619;SDS011;32125;48.518;9.050;2023-07-29T11:45:18;1.70;;;1.60;;
14619;SDS011;32125;48.518;9.050;2023-07-29T11:47:44;1.73;;;1.40;;
14619;SDS011;32125;48.518;9.050;2023-07-29T11:50:11;1.50;;;1.40;;
14619;SDS011;32125;48.518;9.050;2023-07-29T11:52:41;1.55;;;1.45;;
14619;SDS011;32125;48.518;9.050;2023-07-29T11:55:07;2.88;;;1.50;;
14619;SDS011;32125;48.518;9.050;2023-07-29T11:57:37;1.60;;;1.50;;
14619;SDS011;32125;48.518;9.050;2023-07-29T12:00:04;1.42;;;1.30;;
14619;SDS011;32125;48.518;9.050;2023-07-29T12:02:34;1.85;;;1.40;;
14619;SDS011;32125;48.518;9.050;2023-07-29T12:05:10;1.52;;;1.42;;
14619;SDS011;32125;48.518;9.050;2023-07-29T12:07:44;1.55;;;1.42;;
14619;SDS011;32125;48.518;9.050;2023-07-29T12:10:10;1.70;;;1.60;;
14619;SDS011;32125;48.518;9.050;2023-07-29T12:12:46;1.60;;;1.50;;
14619;SDS011;32125;48.518;9.050;2023-07-29T12:15:13;1.70;;;1.60;;
14619;SDS011;32125;48.518;9.050;2023-07-29T12:17:40;1.60;;;1.50;;
14619;SDS011;32125;48.518;9.050;2023-07-29T12:20:07;1.92;;;1.50;;
14619;SDS011;32125;48.518;9.050;2023-07-29T12:22:34;2.45;;;1.40;;
14619;SDS011;32125;48.518;9.050;2023-07-29T12:25:03;1.50;;;1.40;;
14619;SDS011;32125;48.518;9.050;2023-07-29T12:27:29;1.63;;;1.52;;
14619;SDS011;32125;48.518;9.050;2023-07-29T12:29:56;1.73;;;1.63;;
14619;SDS011;32125;48.518;9.050;2023-07-29T12:32:24;1.55;;;1.42;;
14619;SDS011;32125;48.518;9.050;2023-07-29T12:34:53;5.57;;;1.90;;
14619;SDS011;32125;48.518;9.050;2023-07-29T12:37:19;1.60;;;1.50;;
14619;SDS011;32125;48.518;9.050;2023-07-29T12:39:45;2.78;;;1.60;;
14619;SDS011;32125;48.518;9.050;2023-07-29T12:42:17;1.80;;;1.70;;
14619;SDS011;32125;48.518;9.050;2023-07-29T12:44:43;2.58;;;1.80;;
14619;SDS011;32125;48.518;9.050;2023-07-29T12:47:09;1.92;;;1.67;;
14619;SDS011;32125;48.518;9.050;2023-07-29T12:49:36;2.35;;;1.55;;
14619;SDS011;32125;48.518;9.050;2023-07-29T12:52:05;1.85;;;1.75;;
14619;SDS011;32125;48.518;9.050;2023-07-29T12:54:31;1.80;;;1.58;;
14619;SDS011;32125;48.518;9.050;2023-07-29T12:56:57;1.80;;;1.70;;
14619;SDS011;32125;48.518;9.050;2023-07-29T12:59:23;2.08;;;1.83;;
14619;SDS011;32125;48.518;9.050;2023-07-29T13:01:54;2.05;;;1.85;;
14619;SDS011;32125;48.518;9.050;2023-07-29T13:04:20;2.15;;;1.73;;
14619;SDS011;32125;48.518;9.050;2023-07-29T13:06:48;1.70;;;1.60;;
14619;SDS011;32125;48.518;9.050;2023-07-29T13:09:14;2.50;;;1.70;;
14619;SDS011;32125;48.518;9.050;2023-07-29T13:11:40;2.03;;;1.83;;
14619;SDS011;32125;48.518;9.050;2023-07-29T13:14:06;1.85;;;1.75;;
14619;SDS011;32125;48.518;9.050;2023-07-29T13:16:32;1.90;;;1.73;;
14619;SDS011;32125;48.518;9.050;2023-07-29T13:19:01;1.70;;;1.60;;
14619;SDS011;32125;48.518;9.050;2023-07-29T13:21:29;1.70;;;1.60;;
14619;SDS011;32125;48.518;9.050;2023-07-29T13:23:55;1.80;;;1.70;;
14619;SDS011;32125;48.518;9.050;2023-07-29T13:26:21;2.95;;;1.80;;
14619;SDS011;32125;48.518;9.050;2023-07-29T13:28:47;1.70;;;1.60;;
14619;SDS011;32125;48.518;9.050;2023-07-29T13:31:13;1.65;;;1.55;;
14619;SDS011;32125;48.518;9.050;2023-07-29T13:33:40;2.03;;;1.88;;
14619;SDS011;32125;48.518;9.050;2023-07-29T13:36:06;2.90;;;1.60;;
14619;SDS011;32125;48.518;9.050;2023-07-29T13:38:34;1.75;;;1.65;;
14619;SDS011;32125;48.518;9.050;2023-07-29T13:41:03;1.92;;;1.60;;
14619;SDS011;32125;48.518;9.050;2023-07-29T13:43:32;3.45;;;1.75;;
14619;SDS011;32125;48.518;9.050;2023-07-29T13:45:58;1.80;;;1.70;;
14619;SDS011;32125;48.518;9.050;2023-07-29T13:48:24;2.88;;;1.60;;
14619;SDS011;32125;48.518;9.050;2023-07-29T13:50:53;2.00;;;1.60;;
14619;SDS011;32125;48.518;9.050;2023-07-29T13:53:19;2.10;;;1.65;;
14619;SDS011;32125;48.518;9.050;2023-07-29T13:55:45;1.80;;;1.70;;
14619;SDS011;32125;48.518;9.050;2023-07-29T13:58:11;1.70;;;1.60;;
14619;SDS011;32125;48.518;9.050;2023-07-29T14:00:37;1.73;;;1.63;;
14619;SDS011;32125;48.518;9.050;2023-07-29T14:03:05;1.58;;;1.50;;
14619;SDS011;32125;48.518;9.050;2023-07-29T14:05:31;2.45;;;1.80;;
14619;SDS011;32125;48.518;9.050;2023-07-29T14:07:57;1.90;;;1.80;;
14619;SDS011;32125;48.518;9.050;2023-07-29T14:10:24;1.98;;;1.77;;
14619;SDS011;32125;48.518;9.050;2023-07-29T14:12:50;1.70;;;1.60;;
14619;SDS011;32125;48.518;9.050;2023-07-29T14:15:16;2.63;;;1.85;;
14619;SDS011;32125;48.518;9.050;2023-07-29T14:17:43;2.53;;;1.80;;
14619;SDS011;32125;48.518;9.050;2023-07-29T14:20:09;2.00;;;1.80;;
14619;SDS011;32125;48.518;9.050;2023-07-29T14:22:35;1.73;;;1.63;;
14619;SDS011;32125;48.518;9.050;2023-07-29T14:25:02;1.70;;;1.60;;
14619;SDS011;32125;48.518;9.050;2023-07-29T14:27:32;1.65;;;1.55;;
14619;SDS011;32125;48.518;9.050;2023-07-29T14:29:58;1.75;;;1.65;;
14619;SDS011;32125;48.518;9.050;2023-07-29T14:32:27;2.95;;;1.90;;
14619;SDS011;32125;48.518;9.050;2023-07-29T14:34:53;1.70;;;1.60;;
14619;SDS011;32125;48.518;9.050;2023-07-29T14:37:19;1.98;;;1.70;;
14619;SDS011;32125;48.518;9.050;2023-07-29T14:39:45;1.50;;;1.40;;
14619;SDS011;32125;48.518;9.050;2023-07-29T14:42:11;1.77;;;1.67;;
14619;SDS011;32125;48.518;9.050;2023-07-29T14:44:39;1.60;;;1.50;;
14619;SDS011;32125;48.518;9.050;2023-07-29T14:47:07;2.63;;;1.80;;
14619;SDS011;32125;48.518;9.050;2023-07-29T14:49:36;2.58;;;1.80;;
14619;SDS011;32125;48.518;9.050;2023-07-29T14:52:02;1.73;;;1.63;;
14619;SDS011;32125;48.518;9.050;2023-07-29T14:54:31;2.10;;;1.88;;
14619;SDS011;32125;48.518;9.050;2023-07-29T14:57:06;2.30;;;1.92;;
14619;SDS011;32125;48.518;9.050;2023-07-29T14:59:32;3.75;;;1.65;;
14619;SDS011;32125;48.518;9.050;2023-07-29T15:01:58;2.15;;;1.70;;
14619;SDS011;32125;48.518;9.050;2023-07-29T15:04:27;2.78;;;2.53;;
14619;SDS011;32125;48.518;9.050;2023-07-29T15:06:53;1.85;;;1.75;;
14619;SDS011;32125;48.518;9.050;2023-07-29T15:09:19;4.22;;;3.83;;
14619;SDS011;32125;48.518;9.050;2023-07-29T15:11:45;1.70;;;1.60;;
14619;SDS011;32125;48.518;9.050;2023-07-29T15:14:11;3.58;;;2.08;;
14619;SDS011;32125;48.518;9.050;2023-07-29T15:16:37;2.63;;;1.80;;
14619;SDS011;32125;48.518;9.050;2023-07-29T15:19:04;1.50;;;1.40;;
14619;SDS011;32125;48.518;9.050;2023-07-29T15:21:32;2.08;;;1.58;;
14619;SDS011;32125;48.518;9.050;2023-07-29T15:23:58;1.70;;;1.60;;
14619;SDS011;32125;48.518;9.050;2023-07-29T15:26:26;1.98;;;1.80;;
14619;SDS011;32125;48.518;9.050;2023-07-29T15:28:53;3.00;;;1.83;;
14619;SDS011;32125;48.518;9.050;2023-07-29T15:31:20;4.43;;;1.70;;
14619;SDS011;32125;48.518;9.050;2023-07-29T15:33:48;2.00;;;1.67;;
14619;SDS011;32125;48.518;9.050;2023-07-29T15:36:14;1.73;;;1.63;;
14619;SDS011;32125;48.518;9.050;2023-07-29T15:38:40;2.00;;;1.52;;
14619;SDS011;32125;48.518;9.050;2023-07-29T15:41:09;1.77;;;1.67;;
14619;SDS011;32125;48.518;9.050;2023-07-29T15:43:34;1.60;;;1.50;;
14619;SDS011;32125;48.518;9.050;2023-07-29T15:46:00;2.10;;;1.90;;
14619;SDS011;32125;48.518;9.050;2023-07-29T15:48:26;2.00;;;1.75;;
14619;SDS011;32125;48.518;9.050;2023-07-29T15:50:52;1.70;;;1.60;;
14619;SDS011;32125;48.518;9.050;2023-07-29T15:53:18;2.40;;;1.80;;
14619;SDS011;32125;48.518;9.050;2023-07-29T15:55:47;1.65;;;1.55;;
14619;SDS011;32125;48.518;9.050;2023-07-29T15:58:13;2.58;;;1.65;;
14619;SDS011;32125;48.518;9.050;2023-07-29T16:00:39;1.70;;;1.60;;
14619;SDS011;32125;48.518;9.050;2023-07-29T16:03:05;1.90;;;1.80;;
14619;SDS011;32125;48.518;9.050;2023-07-29T16:05:34;1.67;;;1.58;;
14619;SDS011;32125;48.518;9.050;2023-07-29T16:08:01;3.78;;;1.75;;
14619;SDS011;32125;48.518;9.050;2023-07-29T16:10:27;3.10;;;1.60;;
14619;SDS011;32125;48.518;9.050;2023-07-29T16:12:55;1.80;;;1.70;;
14619;SDS011;32125;48.518;9.050;2023-07-29T16:15:21;1.95;;;1.85;;
14619;SDS011;32125;48.518;9.050;2023-07-29T16:17:48;3.33;;;1.85;;
14619;SDS011;32125;48.518;9.050;2023-07-29T16:20:17;1.88;;;1.77;;
14619;SDS011;32125;48.518;9.050;2023-07-29T16:22:43;1.90;;;1.63;;
14619;SDS011;32125;48.518;9.050;2023-07-29T16:25:09;3.20;;;2.10;;
14619;SDS011;32125;48.518;9.050;2023-07-29T16:27:36;2.67;;;1.92;;
14619;SDS011;32125;48.518;9.050;2023-07-29T16:30:04;2.20;;;2.00;;
14619;SDS011;32125;48.518;9.050;2023-07-29T16:32:33;3.53;;;2.15;;
14619;SDS011;32125;48.518;9.050;2023-07-29T16:35:01;3.70;;;2.17;;
14619;SDS011;32125;48.518;9.050;2023-07-29T16:37:30;2.92;;;1.90;;
14619;SDS011;32125;48.518;9.050;2023-07-29T16:39:56;2.55;;;2.17;;
14619;SDS011;32125;48.518;9.050;2023-07-29T16:42:22;1.90;;;1.80;;
14619;SDS011;32125;48.518;9.050;2023-07-29T16:44:48;1.90;;;1.80;;
14619;SDS011;32125;48.518;9.050;2023-07-29T16:47:14;2.45;;;1.63;;
14619;SDS011;32125;48.518;9.050;2023-07-29T16:49:40;3.00;;;2.08;;
14619;SDS011;32125;48.518;9.050;2023-07-29T16:52:08;2.30;;;2.10;;
14619;SDS011;32125;48.518;9.050;2023-07-29T16:54:34;3.22;;;2.03;;
14619;SDS011;32125;48.518;9.050;2023-07-29T16:57:00;5.25;;;2.65;;
14619;SDS011;32125;48.518;9.050;2023-07-29T16:59:26;3.20;;;2.22;;
14619;SDS011;32125;48.518;9.050;2023-07-29T17:01:52;3.53;;;2.30;;
14619;SDS011;32125;48.518;9.050;2023-07-29T17:04:18;4.13;;;2.60;;
14619;SDS011;32125;48.518;9.050;2023-07-29T17:06:44;6.18;;;2.53;;
14619;SDS011;32125;48.518;9.050;2023-07-29T17:09:10;10.32;;;2.92;;